sensor_id;sensor_type;location;lat;lon;timestamp;P1;durP1;ratioP1;P2;durP2;ratioP2
33148;SDS011;19506;51.040;3.856;2023-05-15T00:01:57;11.32;;;5.20;;
33148;SDS011;19506;51.040;3.856;2023-05-15T00:04:23;13.77;;;6.07;;
33148;SDS011;19506;51.040;3.856;2023-05-15T00:06:49;14.13;;;5.95;;
33148;SDS011;19506;51.040;3.856;2023-05-15T00:09:15;10.98;;;5.20;;
33148;SDS011;19506;51.040;3.856;2023-05-15T00:11:41;11.85;;;4.85;;
33148;SDS011;19506;51.040;3.856;2023-05-15T00:14:06;10.60;;;5.85;;
33148;SDS011;19506;51.040;3.856;2023-05-15T00:16:32;9.13;;;5.78;;
33148;SDS011;19506;51.040;3.856;2023-05-15T00:18:58;14.35;;;6.40;;
33148;SDS011;19506;51.040;3.856;2023-05-15T00:21:23;11.95;;;6.57;;
33148;SDS011;19506;51.040;3.856;2023-05-15T00:23:49;12.73;;;6.03;;
33148;SDS011;19506;51.040;3.856;2023-05-15T00:26:17;12.80;;;6.18;;
33148;SDS011;19506;51.040;3.856;2023-05-15T00:28:43;9.38;;;5.15;;
33148;SDS011;19506;51.040;3.856;2023-05-15T00:31:09;13.85;;;5.65;;
33148;SDS011;19506;51.040;3.856;2023-05-15T00:33:37;11.55;;;5.60;;
33148;SDS011;19506;51.040;3.856;2023-05-15T00:36:02;9.80;;;5.15;;
33148;SDS011;19506;51.040;3.856;2023-05-15T00:38:29;9.98;;;5.57;;
33148;SDS011;19506;51.040;3.856;2023-05-15T00:40:55;15.30;;;5.97;;
33148;SDS011;19506;51.040;3.856;2023-05-15T00:43:21;9.13;;;5.43;;
33148;SDS011;19506;51.040;3.856;2023-05-15T00:45:50;10.63;;;6.25;;
33148;SDS011;19506;51.040;3.856;2023-05-15T00:48:17;10.00;;;5.70;;
33148;SDS011;19506;51.040;3.856;2023-05-15T00:50:46;11.68;;;5.65;;
33148;SDS011;19506;51.040;3.856;2023-05-15T00:53:18;9.20;;;5.32;;
33148;SDS011;19506;51.040;3.856;2023-05-15T00:55:46;12.27;;;5.50;;
33148;SDS011;19506;51.040;3.856;2023-05-15T00:58:14;7.47;;;4.78;;
33148;SDS011;19506;51.040;3.856;2023-05-15T01:00:41;8.73;;;5.53;;
33148;SDS011;19506;51.040;3.856;2023-05-15T01:03:09;10.30;;;5.50;;
33148;SDS011;19506;51.040;3.856;2023-05-15T01:05:35;8.65;;;5.40;;
33148;SDS011;19506;51.040;3.856;2023-05-15T01:08:06;18.98;;;5.97;;
33148;SDS011;19506;51.040;3.856;2023-05-15T01:10:51;11.65;;;5.72;;
33148;SDS011;19506;51.040;3.856;2023-05-15T01:13:21;8.48;;;5.72;;
33148;SDS011;19506;51.040;3.856;2023-05-15T01:15:47;9.65;;;5.80;;
33148;SDS011;19506;51.040;3.856;2023-05-15T01:18:13;12.23;;;5.78;;
33148;SDS011;19506;51.040;3.856;2023-05-15T01:20:45;9.68;;;5.80;;
33148;SDS011;19506;51.040;3.856;2023-05-15T01:31:32;7.50;;;5.53;;
33148;SDS011;19506;51.040;3.856;2023-05-15T01:34:01;11.13;;;6.45;;
33148;SDS011;19506;51.040;3.856;2023-05-15T01:36:37;11.27;;;5.22;;
33148;SDS011;19506;51.040;3.856;2023-05-15T01:39:09;10.82;;;5.93;;
33148;SDS011;19506;51.040;3.856;2023-05-15T01:41:40;10.43;;;5.70;;
33148;SDS011;19506;51.040;3.856;2023-05-15T01:44:13;10.38;;;6.32;;
33148;SDS011;19506;51.040;3.856;2023-05-15T01:46:44;9.35;;;5.75;;
33148;SDS011;19506;51.040;3.856;2023-05-15T01:49:12;8.50;;;5.00;;
33148;SDS011;19506;51.040;3.856;2023-05-15T01:51:39;11.18;;;5.68;;
33148;SDS011;19506;51.040;3.856;2023-05-15T01:54:08;8.63;;;5.80;;
33148;SDS011;19506;51.040;3.856;2023-05-15T01:56:36;11.55;;;5.68;;
33148;SDS011;19506;51.040;3.856;2023-05-15T01:59:04;8.05;;;5.32;;
33148;SDS011;19506;51.040;3.856;2023-05-15T02:01:31;6.18;;;5.07;;
33148;SDS011;19506;51.040;3.856;2023-05-15T02:03:59;12.32;;;5.68;;
33148;SDS011;19506;51.040;3.856;2023-05-15T02:06:26;10.52;;;5.60;;
33148;SDS011;19506;51.040;3.856;2023-05-15T02:08:52;10.52;;;6.13;;
33148;SDS011;19506;51.040;3.856;2023-05-15T02:11:20;9.55;;;5.70;;
33148;SDS011;19506;51.040;3.856;2023-05-15T02:13:45;8.80;;;5.80;;
33148;SDS011;19506;51.040;3.856;2023-05-15T02:16:13;10.95;;;5.57;;
33148;SDS011;19506;51.040;3.856;2023-05-15T02:18:38;8.80;;;5.97;;
33148;SDS011;19506;51.040;3.856;2023-05-15T02:21:05;11.90;;;7.25;;
33148;SDS011;19506;51.040;3.856;2023-05-15T02:23:31;8.48;;;5.97;;
33148;SDS011;19506;51.040;3.856;2023-05-15T02:26:05;8.48;;;5.82;;
33148;SDS011;19506;51.040;3.856;2023-05-15T02:29:33;14.50;;;6.20;;
33148;SDS011;19506;51.040;3.856;2023-05-15T02:31:44;7.22;;;6.05;;
33148;SDS011;19506;51.040;3.856;2023-05-15T02:35:02;9.50;;;6.63;;
33148;SDS011;19506;51.040;3.856;2023-05-15T02:36:57;8.15;;;6.00;;
33148;SDS011;19506;51.040;3.856;2023-05-15T02:39:25;12.40;;;6.82;;
33148;SDS011;19506;51.040;3.856;2023-05-15T02:41:51;8.57;;;6.40;;
33148;SDS011;19506;51.040;3.856;2023-05-15T02:44:18;8.18;;;6.18;;
33148;SDS011;19506;51.040;3.856;2023-05-15T02:46:45;7.82;;;5.72;;
33148;SDS011;19506;51.040;3.856;2023-05-15T02:49:11;8.38;;;6.13;;
33148;SDS011;19506;51.040;3.856;2023-05-15T02:51:38;9.35;;;5.40;;
33148;SDS011;19506;51.040;3.856;2023-05-15T02:54:04;12.35;;;6.32;;
33148;SDS011;19506;51.040;3.856;2023-05-15T02:56:30;8.30;;;6.55;;
33148;SDS011;19506;51.040;3.856;2023-05-15T02:58:56;9.15;;;6.68;;
33148;SDS011;19506;51.040;3.856;2023-05-15T03:01:22;9.40;;;6.40;;
33148;SDS011;19506;51.040;3.856;2023-05-15T03:03:47;11.65;;;6.22;;
33148;SDS011;19506;51.040;3.856;2023-05-15T03:06:13;10.60;;;6.78;;
33148;SDS011;19506;51.040;3.856;2023-05-15T03:08:39;11.18;;;6.63;;
33148;SDS011;19506;51.040;3.856;2023-05-15T03:11:04;8.32;;;6.38;;
33148;SDS011;19506;51.040;3.856;2023-05-15T03:13:30;12.55;;;7.20;;
33148;SDS011;19506;51.040;3.856;2023-05-15T03:15:55;10.75;;;6.68;;
33148;SDS011;19506;51.040;3.856;2023-05-15T03:18:21;9.98;;;7.00;;
33148;SDS011;19506;51.040;3.856;2023-05-15T03:20:47;7.45;;;6.30;;
33148;SDS011;19506;51.040;3.856;2023-05-15T03:23:13;12.00;;;7.07;;
33148;SDS011;19506;51.040;3.856;2023-05-15T03:25:39;9.55;;;6.80;;
33148;SDS011;19506;51.040;3.856;2023-05-15T03:28:05;9.90;;;6.75;;
33148;SDS011;19506;51.040;3.856;2023-05-15T03:30:30;11.00;;;7.32;;
33148;SDS011;19506;51.040;3.856;2023-05-15T03:32:56;12.15;;;7.63;;
33148;SDS011;19506;51.040;3.856;2023-05-15T03:35:22;10.63;;;7.28;;
33148;SDS011;19506;51.040;3.856;2023-05-15T03:37:47;9.35;;;7.07;;
33148;SDS011;19506;51.040;3.856;2023-05-15T03:40:13;8.50;;;6.50;;
33148;SDS011;19506;51.040;3.856;2023-05-15T03:42:39;9.80;;;7.57;;
33148;SDS011;19506;51.040;3.856;2023-05-15T03:45:05;9.00;;;6.95;;
33148;SDS011;19506;51.040;3.856;2023-05-15T03:47:31;12.15;;;8.40;;
33148;SDS011;19506;51.040;3.856;2023-05-15T03:49:56;9.60;;;6.70;;
33148;SDS011;19506;51.040;3.856;2023-05-15T03:52:22;8.30;;;6.78;;
33148;SDS011;19506;51.040;3.856;2023-05-15T03:54:48;10.13;;;7.22;;
33148;SDS011;19506;51.040;3.856;2023-05-15T03:57:14;10.70;;;7.43;;
33148;SDS011;19506;51.040;3.856;2023-05-15T03:59:40;8.90;;;6.50;;
33148;SDS011;19506;51.040;3.856;2023-05-15T04:02:05;10.43;;;7.60;;
33148;SDS011;19506;51.040;3.856;2023-05-15T04:04:31;11.50;;;6.95;;
33148;SDS011;19506;51.040;3.856;2023-05-15T04:06:57;10.85;;;7.30;;
33148;SDS011;19506;51.040;3.856;2023-05-15T04:09:22;7.63;;;6.30;;
33148;SDS011;19506;51.040;3.856;2023-05-15T04:11:48;8.82;;;7.03;;
33148;SDS011;19506;51.040;3.856;2023-05-15T04:14:14;10.95;;;7.90;;
33148;SDS011;19506;51.040;3.856;2023-05-15T04:16:39;9.80;;;7.25;;
33148;SDS011;19506;51.040;3.856;2023-05-15T04:19:05;9.88;;;7.78;;
33148;SDS011;19506;51.040;3.856;2023-05-15T04:21:31;10.27;;;7.20;;
33148;SDS011;19506;51.040;3.856;2023-05-15T04:23:56;7.45;;;6.10;;
33148;SDS011;19506;51.040;3.856;2023-05-15T04:26:22;8.38;;;6.72;;
33148;SDS011;19506;51.040;3.856;2023-05-15T04:28:47;11.45;;;7.35;;
33148;SDS011;19506;51.040;3.856;2023-05-15T04:31:13;8.65;;;7.13;;
33148;SDS011;19506;51.040;3.856;2023-05-15T04:33:39;13.02;;;7.90;;
33148;SDS011;19506;51.040;3.856;2023-05-15T04:36:05;11.90;;;7.85;;
33148;SDS011;19506;51.040;3.856;2023-05-15T04:38:31;9.88;;;7.68;;
33148;SDS011;19506;51.040;3.856;2023-05-15T04:40:57;9.63;;;7.72;;
33148;SDS011;19506;51.040;3.856;2023-05-15T04:43:23;10.07;;;6.93;;
33148;SDS011;19506;51.040;3.856;2023-05-15T04:45:48;8.80;;;6.97;;
33148;SDS011;19506;51.040;3.856;2023-05-15T04:48:14;11.05;;;7.50;;
33148;SDS011;19506;51.040;3.856;2023-05-15T04:50:42;14.30;;;8.70;;
33148;SDS011;19506;51.040;3.856;2023-05-15T04:53:07;14.88;;;9.70;;
33148;SDS011;19506;51.040;3.856;2023-05-15T04:55:33;18.10;;;12.68;;
33148;SDS011;19506;51.040;3.856;2023-05-15T04:57:59;19.75;;;13.00;;
33148;SDS011;19506;51.040;3.856;2023-05-15T05:00:24;24.58;;;15.32;;
33148;SDS011;19506;51.040;3.856;2023-05-15T05:02:50;25.75;;;15.32;;
33148;SDS011;19506;51.040;3.856;2023-05-15T05:05:16;23.90;;;16.45;;
33148;SDS011;19506;51.040;3.856;2023-05-15T05:07:41;25.20;;;17.63;;
33148;SDS011;19506;51.040;3.856;2023-05-15T05:10:09;27.67;;;18.30;;
33148;SDS011;19506;51.040;3.856;2023-05-15T05:12:35;32.13;;;19.45;;
33148;SDS011;19506;51.040;3.856;2023-05-15T05:15:01;31.20;;;19.10;;
33148;SDS011;19506;51.040;3.856;2023-05-15T05:17:27;32.13;;;19.70;;
33148;SDS011;19506;51.040;3.856;2023-05-15T05:19:53;30.65;;;18.63;;
33148;SDS011;19506;51.040;3.856;2023-05-15T05:22:18;29.42;;;18.67;;
33148;SDS011;19506;51.040;3.856;2023-05-15T05:24:44;31.15;;;20.58;;
33148;SDS011;19506;51.040;3.856;2023-05-15T05:27:10;33.92;;;19.50;;
33148;SDS011;19506;51.040;3.856;2023-05-15T05:29:35;27.70;;;18.67;;
33148;SDS011;19506;51.040;3.856;2023-05-15T05:32:01;33.65;;;21.25;;
33148;SDS011;19506;51.040;3.856;2023-05-15T05:34:27;31.30;;;18.23;;
33148;SDS011;19506;51.040;3.856;2023-05-15T05:36:53;33.00;;;20.02;;
33148;SDS011;19506;51.040;3.856;2023-05-15T05:39:18;27.40;;;18.20;;
33148;SDS011;19506;51.040;3.856;2023-05-15T05:41:45;31.48;;;17.95;;
33148;SDS011;19506;51.040;3.856;2023-05-15T05:44:11;34.25;;;19.00;;
33148;SDS011;19506;51.040;3.856;2023-05-15T05:46:37;40.95;;;19.83;;
33148;SDS011;19506;51.040;3.856;2023-05-15T05:49:02;30.40;;;18.90;;
33148;SDS011;19506;51.040;3.856;2023-05-15T05:51:29;32.50;;;18.20;;
33148;SDS011;19506;51.040;3.856;2023-05-15T05:53:55;32.85;;;17.92;;
33148;SDS011;19506;51.040;3.856;2023-05-15T05:56:21;34.22;;;17.92;;
33148;SDS011;19506;51.040;3.856;2023-05-15T05:58:47;34.80;;;19.20;;
33148;SDS011;19506;51.040;3.856;2023-05-15T06:01:13;65.20;;;19.58;;
33148;SDS011;19506;51.040;3.856;2023-05-15T06:03:40;35.40;;;18.40;;
33148;SDS011;19506;51.040;3.856;2023-05-15T06:06:07;38.22;;;19.35;;
33148;SDS011;19506;51.040;3.856;2023-05-15T06:08:32;38.08;;;19.23;;
33148;SDS011;19506;51.040;3.856;2023-05-15T06:10:58;36.20;;;18.95;;
33148;SDS011;19506;51.040;3.856;2023-05-15T06:13:24;31.83;;;18.02;;
33148;SDS011;19506;51.040;3.856;2023-05-15T06:15:49;39.92;;;18.95;;
33148;SDS011;19506;51.040;3.856;2023-05-15T06:18:15;35.78;;;18.50;;
33148;SDS011;19506;51.040;3.856;2023-05-15T06:20:41;34.30;;;17.20;;
33148;SDS011;19506;51.040;3.856;2023-05-15T06:23:07;34.38;;;18.42;;
33148;SDS011;19506;51.040;3.856;2023-05-15T06:25:33;34.35;;;17.77;;
33148;SDS011;19506;51.040;3.856;2023-05-15T06:27:59;28.73;;;17.25;;
33148;SDS011;19506;51.040;3.856;2023-05-15T06:30:25;26.90;;;17.40;;
33148;SDS011;19506;51.040;3.856;2023-05-15T06:32:51;27.65;;;16.40;;
33148;SDS011;19506;51.040;3.856;2023-05-15T06:35:17;35.28;;;17.00;;
33148;SDS011;19506;51.040;3.856;2023-05-15T06:37:43;33.33;;;18.35;;
33148;SDS011;19506;51.040;3.856;2023-05-15T06:40:08;26.00;;;16.23;;
33148;SDS011;19506;51.040;3.856;2023-05-15T06:42:34;26.83;;;16.00;;
33148;SDS011;19506;51.040;3.856;2023-05-15T06:45:00;25.60;;;14.32;;
33148;SDS011;19506;51.040;3.856;2023-05-15T06:47:26;29.02;;;16.05;;
33148;SDS011;19506;51.040;3.856;2023-05-15T06:49:52;31.00;;;15.40;;
33148;SDS011;19506;51.040;3.856;2023-05-15T06:52:19;31.40;;;15.68;;
33148;SDS011;19506;51.040;3.856;2023-05-15T06:54:44;31.08;;;15.38;;
33148;SDS011;19506;51.040;3.856;2023-05-15T06:57:11;25.52;;;15.60;;
33148;SDS011;19506;51.040;3.856;2023-05-15T06:59:36;29.75;;;15.50;;
33148;SDS011;19506;51.040;3.856;2023-05-15T07:02:02;25.25;;;14.93;;
33148;SDS011;19506;51.040;3.856;2023-05-15T07:04:28;21.13;;;13.98;;
33148;SDS011;19506;51.040;3.856;2023-05-15T07:06:55;30.80;;;15.45;;
33148;SDS011;19506;51.040;3.856;2023-05-15T07:09:21;25.45;;;13.73;;
33148;SDS011;19506;51.040;3.856;2023-05-15T07:11:46;22.55;;;14.63;;
33148;SDS011;19506;51.040;3.856;2023-05-15T07:14:12;27.55;;;15.75;;
33148;SDS011;19506;51.040;3.856;2023-05-15T07:16:38;27.38;;;14.07;;
33148;SDS011;19506;51.040;3.856;2023-05-15T07:19:03;25.17;;;14.43;;
33148;SDS011;19506;51.040;3.856;2023-05-15T07:21:29;33.50;;;15.32;;
33148;SDS011;19506;51.040;3.856;2023-05-15T07:23:54;25.08;;;14.60;;
33148;SDS011;19506;51.040;3.856;2023-05-15T07:26:20;24.75;;;15.05;;
33148;SDS011;19506;51.040;3.856;2023-05-15T07:28:46;21.02;;;12.98;;
33148;SDS011;19506;51.040;3.856;2023-05-15T07:31:11;26.45;;;12.70;;
33148;SDS011;19506;51.040;3.856;2023-05-15T07:33:37;20.75;;;12.95;;
33148;SDS011;19506;51.040;3.856;2023-05-15T07:36:03;25.63;;;13.98;;
33148;SDS011;19506;51.040;3.856;2023-05-15T07:38:29;20.85;;;12.90;;
33148;SDS011;19506;51.040;3.856;2023-05-15T07:40:54;21.98;;;12.32;;
33148;SDS011;19506;51.040;3.856;2023-05-15T07:43:20;21.92;;;13.57;;
33148;SDS011;19506;51.040;3.856;2023-05-15T07:45:45;22.05;;;12.07;;
33148;SDS011;19506;51.040;3.856;2023-05-15T07:48:12;21.75;;;13.90;;
33148;SDS011;19506;51.040;3.856;2023-05-15T07:50:38;22.70;;;12.55;;
33148;SDS011;19506;51.040;3.856;2023-05-15T07:53:04;22.63;;;12.52;;
33148;SDS011;19506;51.040;3.856;2023-05-15T07:55:30;24.27;;;14.80;;
33148;SDS011;19506;51.040;3.856;2023-05-15T07:57:55;23.15;;;12.98;;
33148;SDS011;19506;51.040;3.856;2023-05-15T08:00:21;19.67;;;12.15;;
33148;SDS011;19506;51.040;3.856;2023-05-15T08:02:47;22.30;;;13.48;;
33148;SDS011;19506;51.040;3.856;2023-05-15T08:05:13;25.50;;;12.95;;
33148;SDS011;19506;51.040;3.856;2023-05-15T08:07:39;20.38;;;11.93;;
33148;SDS011;19506;51.040;3.856;2023-05-15T08:10:05;23.35;;;13.75;;
33148;SDS011;19506;51.040;3.856;2023-05-15T08:12:31;21.70;;;12.50;;
33148;SDS011;19506;51.040;3.856;2023-05-15T08:14:57;22.17;;;12.65;;
33148;SDS011;19506;51.040;3.856;2023-05-15T08:17:23;24.60;;;12.70;;
33148;SDS011;19506;51.040;3.856;2023-05-15T08:19:49;23.98;;;13.43;;
33148;SDS011;19506;51.040;3.856;2023-05-15T08:22:16;19.02;;;12.10;;
33148;SDS011;19506;51.040;3.856;2023-05-15T08:24:42;23.10;;;12.43;;
33148;SDS011;19506;51.040;3.856;2023-05-15T08:27:08;20.48;;;12.48;;
33148;SDS011;19506;51.040;3.856;2023-05-15T08:29:34;24.42;;;12.98;;
33148;SDS011;19506;51.040;3.856;2023-05-15T08:32:00;23.52;;;13.30;;
33148;SDS011;19506;51.040;3.856;2023-05-15T08:34:27;27.13;;;14.68;;
33148;SDS011;19506;51.040;3.856;2023-05-15T08:36:52;26.40;;;14.88;;
33148;SDS011;19506;51.040;3.856;2023-05-15T08:39:18;34.25;;;16.67;;
33148;SDS011;19506;51.040;3.856;2023-05-15T08:44:34;40.38;;;17.92;;
33148;SDS011;19506;51.040;3.856;2023-05-15T08:47:00;40.05;;;19.60;;
33148;SDS011;19506;51.040;3.856;2023-05-15T08:52:09;35.47;;;18.77;;
33148;SDS011;19506;51.040;3.856;2023-05-15T08:54:35;40.33;;;18.05;;
33148;SDS011;19506;51.040;3.856;2023-05-15T08:57:03;42.22;;;19.10;;
33148;SDS011;19506;51.040;3.856;2023-05-15T08:59:29;37.80;;;19.15;;
33148;SDS011;19506;51.040;3.856;2023-05-15T09:01:55;36.45;;;18.88;;
33148;SDS011;19506;51.040;3.856;2023-05-15T09:04:21;33.53;;;18.15;;
33148;SDS011;19506;51.040;3.856;2023-05-15T09:06:47;34.90;;;17.23;;
33148;SDS011;19506;51.040;3.856;2023-05-15T09:09:13;34.63;;;18.08;;
33148;SDS011;19506;51.040;3.856;2023-05-15T09:11:43;39.67;;;18.70;;
33148;SDS011;19506;51.040;3.856;2023-05-15T09:14:10;32.80;;;16.50;;
33148;SDS011;19506;51.040;3.856;2023-05-15T09:16:36;30.02;;;16.73;;
33148;SDS011;19506;51.040;3.856;2023-05-15T09:19:03;32.55;;;17.42;;
33148;SDS011;19506;51.040;3.856;2023-05-15T09:21:30;35.17;;;17.00;;
33148;SDS011;19506;51.040;3.856;2023-05-15T09:29:32;32.13;;;16.90;;
33148;SDS011;19506;51.040;3.856;2023-05-15T09:32:02;30.15;;;16.80;;
33148;SDS011;19506;51.040;3.856;2023-05-15T09:34:32;35.20;;;17.40;;
33148;SDS011;19506;51.040;3.856;2023-05-15T09:37:04;32.10;;;17.40;;
33148;SDS011;19506;51.040;3.856;2023-05-15T09:39:31;32.92;;;17.08;;
33148;SDS011;19506;51.040;3.856;2023-05-15T09:42:04;30.10;;;16.48;;
33148;SDS011;19506;51.040;3.856;2023-05-15T09:44:31;29.67;;;16.80;;
33148;SDS011;19506;51.040;3.856;2023-05-15T09:46:58;30.33;;;17.60;;
33148;SDS011;19506;51.040;3.856;2023-05-15T09:49:25;31.20;;;17.08;;
33148;SDS011;19506;51.040;3.856;2023-05-15T09:51:58;27.65;;;16.08;;
33148;SDS011;19506;51.040;3.856;2023-05-15T09:54:25;30.08;;;16.85;;
33148;SDS011;19506;51.040;3.856;2023-05-15T09:56:54;33.78;;;16.80;;
33148;SDS011;19506;51.040;3.856;2023-05-15T09:59:20;29.02;;;16.85;;
33148;SDS011;19506;51.040;3.856;2023-05-15T10:01:47;30.60;;;16.33;;
33148;SDS011;19506;51.040;3.856;2023-05-15T10:04:14;26.17;;;15.35;;
33148;SDS011;19506;51.040;3.856;2023-05-15T10:06:49;32.65;;;15.93;;
33148;SDS011;19506;51.040;3.856;2023-05-15T10:09:15;25.92;;;16.00;;
33148;SDS011;19506;51.040;3.856;2023-05-15T10:11:42;29.92;;;17.50;;
33148;SDS011;19506;51.040;3.856;2023-05-15T10:14:11;27.90;;;16.00;;
33148;SDS011;19506;51.040;3.856;2023-05-15T10:16:39;30.55;;;16.15;;
33148;SDS011;19506;51.040;3.856;2023-05-15T10:19:06;36.22;;;16.13;;
33148;SDS011;19506;51.040;3.856;2023-05-15T10:21:36;28.92;;;16.73;;
33148;SDS011;19506;51.040;3.856;2023-05-15T10:24:03;30.05;;;17.13;;
33148;SDS011;19506;51.040;3.856;2023-05-15T10:29:10;25.50;;;14.98;;
33148;SDS011;19506;51.040;3.856;2023-05-15T10:31:38;28.77;;;14.77;;
33148;SDS011;19506;51.040;3.856;2023-05-15T10:34:04;26.58;;;15.50;;
33148;SDS011;19506;51.040;3.856;2023-05-15T10:36:31;25.27;;;14.73;;
33148;SDS011;19506;51.040;3.856;2023-05-15T10:38:58;27.70;;;15.27;;
33148;SDS011;19506;51.040;3.856;2023-05-15T10:41:26;26.70;;;16.10;;
33148;SDS011;19506;51.040;3.856;2023-05-15T10:43:57;28.35;;;15.85;;
33148;SDS011;19506;51.040;3.856;2023-05-15T10:46:24;27.27;;;15.35;;
33148;SDS011;19506;51.040;3.856;2023-05-15T10:48:50;26.08;;;15.35;;
33148;SDS011;19506;51.040;3.856;2023-05-15T10:51:17;24.42;;;15.02;;
33148;SDS011;19506;51.040;3.856;2023-05-15T10:53:47;30.33;;;15.73;;
33148;SDS011;19506;51.040;3.856;2023-05-15T10:56:14;20.83;;;13.38;;
33148;SDS011;19506;51.040;3.856;2023-05-15T10:58:49;26.50;;;14.45;;
33148;SDS011;19506;51.040;3.856;2023-05-15T11:01:26;23.20;;;14.40;;
33148;SDS011;19506;51.040;3.856;2023-05-15T11:04:03;26.00;;;15.25;;
33148;SDS011;19506;51.040;3.856;2023-05-15T11:06:28;27.45;;;14.70;;
33148;SDS011;19506;51.040;3.856;2023-05-15T11:15:21;26.40;;;15.52;;
33148;SDS011;19506;51.040;3.856;2023-05-15T11:17:16;25.40;;;15.48;;
33148;SDS011;19506;51.040;3.856;2023-05-15T11:25:07;24.73;;;13.77;;
33148;SDS011;19506;51.040;3.856;2023-05-15T11:27:38;25.08;;;14.25;;
33148;SDS011;19506;51.040;3.856;2023-05-15T11:32:49;22.48;;;14.02;;
33148;SDS011;19506;51.040;3.856;2023-05-15T11:37:54;22.25;;;13.55;;
33148;SDS011;19506;51.040;3.856;2023-05-15T11:40:23;24.98;;;14.35;;
33148;SDS011;19506;51.040;3.856;2023-05-15T11:45:38;20.67;;;13.48;;
33148;SDS011;19506;51.040;3.856;2023-05-15T11:48:05;24.58;;;16.10;;
33148;SDS011;19506;51.040;3.856;2023-05-15T11:50:33;30.73;;;19.40;;
33148;SDS011;19506;51.040;3.856;2023-05-15T11:53:03;31.65;;;18.73;;
33148;SDS011;19506;51.040;3.856;2023-05-15T11:55:31;33.42;;;20.83;;
33148;SDS011;19506;51.040;3.856;2023-05-15T11:57:58;32.65;;;19.58;;
33148;SDS011;19506;51.040;3.856;2023-05-15T12:00:24;40.67;;;27.08;;
33148;SDS011;19506;51.040;3.856;2023-05-15T12:02:50;43.72;;;30.58;;
33148;SDS011;19506;51.040;3.856;2023-05-15T12:05:15;62.20;;;36.25;;
33148;SDS011;19506;51.040;3.856;2023-05-15T12:07:41;54.03;;;35.67;;
33148;SDS011;19506;51.040;3.856;2023-05-15T12:10:08;48.47;;;30.98;;
33148;SDS011;19506;51.040;3.856;2023-05-15T12:12:37;44.33;;;28.48;;
33148;SDS011;19506;51.040;3.856;2023-05-15T12:15:07;50.20;;;30.30;;
33148;SDS011;19506;51.040;3.856;2023-05-15T12:17:35;44.80;;;29.42;;
33148;SDS011;19506;51.040;3.856;2023-05-15T12:20:02;42.80;;;26.67;;
33148;SDS011;19506;51.040;3.856;2023-05-15T12:22:34;42.80;;;29.48;;
33148;SDS011;19506;51.040;3.856;2023-05-15T12:25:00;46.85;;;26.65;;
33148;SDS011;19506;51.040;3.856;2023-05-15T12:27:26;39.53;;;21.25;;
33148;SDS011;19506;51.040;3.856;2023-05-15T12:29:52;30.65;;;19.27;;
33148;SDS011;19506;51.040;3.856;2023-05-15T12:32:18;28.55;;;17.38;;
33148;SDS011;19506;51.040;3.856;2023-05-15T12:34:44;30.00;;;17.10;;
33148;SDS011;19506;51.040;3.856;2023-05-15T12:37:11;26.70;;;15.43;;
33148;SDS011;19506;51.040;3.856;2023-05-15T12:42:19;25.23;;;12.57;;
33148;SDS011;19506;51.040;3.856;2023-05-15T12:44:45;17.38;;;10.60;;
33148;SDS011;19506;51.040;3.856;2023-05-15T12:47:19;23.05;;;9.93;;
33148;SDS011;19506;51.040;3.856;2023-05-15T12:49:47;17.35;;;8.75;;
33148;SDS011;19506;51.040;3.856;2023-05-15T12:52:13;15.70;;;8.52;;
33148;SDS011;19506;51.040;3.856;2023-05-15T12:54:40;20.00;;;9.00;;
33148;SDS011;19506;51.040;3.856;2023-05-15T12:57:07;16.17;;;8.95;;
33148;SDS011;19506;51.040;3.856;2023-05-15T12:59:33;16.58;;;9.05;;
33148;SDS011;19506;51.040;3.856;2023-05-15T13:02:00;13.95;;;8.95;;
33148;SDS011;19506;51.040;3.856;2023-05-15T13:04:25;14.82;;;7.85;;
33148;SDS011;19506;51.040;3.856;2023-05-15T13:06:51;20.60;;;8.48;;
33148;SDS011;19506;51.040;3.856;2023-05-15T13:09:21;15.57;;;7.28;;
33148;SDS011;19506;51.040;3.856;2023-05-15T13:11:47;16.20;;;7.43;;
33148;SDS011;19506;51.040;3.856;2023-05-15T13:14:15;12.48;;;7.63;;
33148;SDS011;19506;51.040;3.856;2023-05-15T13:16:42;12.48;;;7.22;;
33148;SDS011;19506;51.040;3.856;2023-05-15T13:19:10;12.68;;;7.53;;
33148;SDS011;19506;51.040;3.856;2023-05-15T13:21:36;15.60;;;7.05;;
33148;SDS011;19506;51.040;3.856;2023-05-15T13:24:02;13.48;;;7.90;;
33148;SDS011;19506;51.040;3.856;2023-05-15T13:26:28;11.63;;;6.43;;
33148;SDS011;19506;51.040;3.856;2023-05-15T13:28:53;11.27;;;6.47;;
33148;SDS011;19506;51.040;3.856;2023-05-15T13:31:19;10.57;;;6.43;;
33148;SDS011;19506;51.040;3.856;2023-05-15T13:33:45;10.38;;;6.53;;
33148;SDS011;19506;51.040;3.856;2023-05-15T13:36:10;13.45;;;6.82;;
33148;SDS011;19506;51.040;3.856;2023-05-15T13:38:36;8.32;;;5.22;;
33148;SDS011;19506;51.040;3.856;2023-05-15T13:41:05;9.85;;;5.53;;
33148;SDS011;19506;51.040;3.856;2023-05-15T13:43:30;10.07;;;5.38;;
33148;SDS011;19506;51.040;3.856;2023-05-15T13:45:56;10.55;;;5.50;;
33148;SDS011;19506;51.040;3.856;2023-05-15T13:48:21;10.75;;;5.07;;
33148;SDS011;19506;51.040;3.856;2023-05-15T13:50:47;12.25;;;4.93;;
33148;SDS011;19506;51.040;3.856;2023-05-15T13:53:13;10.98;;;5.55;;
33148;SDS011;19506;51.040;3.856;2023-05-15T13:55:44;7.65;;;4.97;;
33148;SDS011;19506;51.040;3.856;2023-05-15T13:58:13;7.03;;;4.82;;
33148;SDS011;19506;51.040;3.856;2023-05-15T14:00:40;6.85;;;4.63;;
33148;SDS011;19506;51.040;3.856;2023-05-15T14:03:07;10.30;;;5.10;;
33148;SDS011;19506;51.040;3.856;2023-05-15T14:05:32;9.40;;;5.22;;
33148;SDS011;19506;51.040;3.856;2023-05-15T14:07:58;13.10;;;5.93;;
33148;SDS011;19506;51.040;3.856;2023-05-15T14:10:24;14.02;;;4.90;;
33148;SDS011;19506;51.040;3.856;2023-05-15T14:12:50;10.43;;;4.40;;
33148;SDS011;19506;51.040;3.856;2023-05-15T14:15:16;25.45;;;6.15;;
33148;SDS011;19506;51.040;3.856;2023-05-15T14:17:41;12.27;;;5.15;;
33148;SDS011;19506;51.040;3.856;2023-05-15T14:20:08;6.57;;;4.68;;
33148;SDS011;19506;51.040;3.856;2023-05-15T14:22:35;8.45;;;4.70;;
33148;SDS011;19506;51.040;3.856;2023-05-15T14:25:02;15.45;;;4.43;;
33148;SDS011;19506;51.040;3.856;2023-05-15T14:27:28;12.60;;;4.32;;
33148;SDS011;19506;51.040;3.856;2023-05-15T14:29:55;9.25;;;4.00;;
33148;SDS011;19506;51.040;3.856;2023-05-15T14:32:21;12.85;;;4.45;;
33148;SDS011;19506;51.040;3.856;2023-05-15T14:34:47;9.63;;;3.95;;
33148;SDS011;19506;51.040;3.856;2023-05-15T14:37:13;8.45;;;4.10;;
33148;SDS011;19506;51.040;3.856;2023-05-15T14:39:39;9.88;;;3.92;;
33148;SDS011;19506;51.040;3.856;2023-05-15T14:42:05;16.65;;;4.35;;
33148;SDS011;19506;51.040;3.856;2023-05-15T14:44:31;7.68;;;4.22;;
33148;SDS011;19506;51.040;3.856;2023-05-15T14:47:10;11.68;;;4.32;;
33148;SDS011;19506;51.040;3.856;2023-05-15T14:49:37;13.10;;;3.90;;
33148;SDS011;19506;51.040;3.856;2023-05-15T14:52:05;12.10;;;4.38;;
33148;SDS011;19506;51.040;3.856;2023-05-15T14:54:32;9.90;;;3.53;;
33148;SDS011;19506;51.040;3.856;2023-05-15T14:56:59;17.25;;;4.40;;
33148;SDS011;19506;51.040;3.856;2023-05-15T14:59:26;10.65;;;4.20;;
33148;SDS011;19506;51.040;3.856;2023-05-15T15:01:52;15.77;;;4.22;;
33148;SDS011;19506;51.040;3.856;2023-05-15T15:04:18;9.48;;;3.80;;
33148;SDS011;19506;51.040;3.856;2023-05-15T15:06:43;17.80;;;4.75;;
33148;SDS011;19506;51.040;3.856;2023-05-15T15:09:11;14.00;;;4.13;;
33148;SDS011;19506;51.040;3.856;2023-05-15T15:11:36;9.80;;;3.92;;
33148;SDS011;19506;51.040;3.856;2023-05-15T15:14:02;16.17;;;4.57;;